createdAt,value
2023-10-09T00:02:06.200Z,11.05
2023-10-09T00:04:32.411Z,10.90
2023-10-09T00:06:58.678Z,10.63
2023-10-09T00:09:25.008Z,10.79
2023-10-09T00:11:51.294Z,10.87
2023-10-09T00:14:17.442Z,10.97
2023-10-09T00:16:43.614Z,10.98
2023-10-09T00:19:09.829Z,10.96
2023-10-09T00:21:35.998Z,10.87
2023-10-09T00:24:02.191Z,11.15
2023-10-09T00:26:28.352Z,11.13
2023-10-09T00:28:54.516Z,11.31
2023-10-09T00:31:20.707Z,11.35
2023-10-09T00:33:46.943Z,11.33
2023-10-09T00:36:13.170Z,11.38
2023-10-09T00:38:39.338Z,10.91
2023-10-09T00:41:05.549Z,10.89
2023-10-09T00:43:31.839Z,10.99
2023-10-09T00:45:58.023Z,11.22
2023-10-09T00:48:24.234Z,11.12
2023-10-09T00:50:50.523Z,10.95
2023-10-09T00:53:16.684Z,10.82
2023-10-09T00:55:42.842Z,10.98
2023-10-09T00:58:09.015Z,10.94
2023-10-09T01:00:35.232Z,10.86
2023-10-09T01:03:01.500Z,11.19
2023-10-09T01:05:27.730Z,11.26
2023-10-09T01:07:53.917Z,11.04
2023-10-09T01:10:20.110Z,11.04
2023-10-09T01:12:46.274Z,10.85
2023-10-09T01:15:12.449Z,10.90
2023-10-09T01:17:38.681Z,10.98
2023-10-09T01:20:04.880Z,10.94
2023-10-09T01:22:31.027Z,11.21
2023-10-09T01:24:57.190Z,11.09
2023-10-09T01:27:23.366Z,11.07
2023-10-09T01:29:49.540Z,11.12
2023-10-09T01:32:15.683Z,11.20
2023-10-09T01:34:41.879Z,11.15
2023-10-09T01:37:08.108Z,11.36
2023-10-09T01:39:34.283Z,11.15
2023-10-09T01:42:00.531Z,11.04
2023-10-09T01:44:26.728Z,10.76
2023-10-09T01:46:52.888Z,10.76
2023-10-09T01:49:19.049Z,10.99
2023-10-09T01:51:45.238Z,11.21
2023-10-09T01:54:11.589Z,11.41
2023-10-09T01:56:37.829Z,11.24
2023-10-09T01:59:04.025Z,10.87
2023-10-09T02:01:30.206Z,10.82
2023-10-09T02:03:56.566Z,10.61
2023-10-09T02:06:22.875Z,10.69
2023-10-09T02:08:49.045Z,10.74
2023-10-09T02:11:15.221Z,10.62
2023-10-09T02:13:41.384Z,10.52
2023-10-09T02:16:07.582Z,10.37
2023-10-09T02:18:33.858Z,10.44
2023-10-09T02:21:00.087Z,10.47
2023-10-09T02:23:26.300Z,10.32
2023-10-09T02:25:52.452Z,10.42
2023-10-09T02:28:18.620Z,10.71
2023-10-09T02:30:44.772Z,10.87
2023-10-09T02:33:11.017Z,11.01
2023-10-09T02:38:19.162Z,10.98
2023-10-09T02:40:45.344Z,10.97
2023-10-09T02:43:11.501Z,10.94
2023-10-09T02:45:37.683Z,10.71
2023-10-09T02:48:03.928Z,10.59
2023-10-09T02:50:30.209Z,10.69
2023-10-09T02:52:56.365Z,10.82
2023-10-09T02:55:22.582Z,10.79
2023-10-09T02:57:48.741Z,10.86
2023-10-09T03:00:14.939Z,10.74
2023-10-09T03:02:41.588Z,10.58
2023-10-09T03:05:07.914Z,10.54
2023-10-09T03:07:34.086Z,10.49
2023-10-09T03:10:00.256Z,10.30
2023-10-09T03:12:26.466Z,10.20
2023-10-09T03:14:52.747Z,10.05
2023-10-09T03:17:19.120Z,10.10
2023-10-09T03:19:45.274Z,10.08
2023-10-09T03:22:12.170Z,9.84
2023-10-09T03:24:38.865Z,10.03
2023-10-09T03:27:05.175Z,10.09
2023-10-09T03:29:31.467Z,10.24
2023-10-09T03:31:57.632Z,10.71
2023-10-09T03:34:23.800Z,10.64
2023-10-09T03:36:49.957Z,10.35
2023-10-09T03:39:16.222Z,10.20
2023-10-09T03:41:42.394Z,10.24
2023-10-09T03:44:08.554Z,10.27
2023-10-09T03:46:34.924Z,10.16
2023-10-09T03:49:01.096Z,10.37
2023-10-09T03:51:27.393Z,10.24
2023-10-09T03:53:53.766Z,10.11
2023-10-09T03:56:19.955Z,10.33
2023-10-09T03:58:46.157Z,10.12
2023-10-09T04:01:12.407Z,10.17
2023-10-09T04:03:38.721Z,10.47
2023-10-09T04:06:05.010Z,10.56
2023-10-09T04:08:31.216Z,10.33
2023-10-09T04:10:58.863Z,10.34
2023-10-09T04:13:25.158Z,10.09
2023-10-09T04:15:51.315Z,10.10
2023-10-09T04:18:17.579Z,10.25
2023-10-09T04:20:43.805Z,10.42
2023-10-09T04:23:09.953Z,10.78
2023-10-09T04:25:36.151Z,10.84
2023-10-09T04:28:02.298Z,10.61
2023-10-09T04:30:28.510Z,10.28
2023-10-09T04:32:54.741Z,10.33
2023-10-09T04:35:20.927Z,10.51
2023-10-09T04:37:47.112Z,10.21
2023-10-09T04:40:13.290Z,9.98
2023-10-09T04:42:39.631Z,9.99
2023-10-09T04:45:05.939Z,10.15
2023-10-09T04:47:32.158Z,10.27
2023-10-09T04:49:58.356Z,10.00
2023-10-09T04:52:24.522Z,9.87
2023-10-09T04:54:50.731Z,9.99
2023-10-09T04:57:16.929Z,10.15
2023-10-09T04:59:43.149Z,10.29
2023-10-09T05:02:09.341Z,10.13
2023-10-09T05:04:35.617Z,9.92
2023-10-09T05:07:01.816Z,9.98
2023-10-09T05:09:27.980Z,10.21
2023-10-09T05:11:54.257Z,10.28
2023-10-09T05:14:20.508Z,10.58
2023-10-09T05:16:46.704Z,10.74
2023-10-09T05:19:13.061Z,10.29
2023-10-09T05:21:39.394Z,10.01
2023-10-09T05:24:05.746Z,10.17
2023-10-09T05:26:31.929Z,10.56
2023-10-09T05:28:58.090Z,10.42
2023-10-09T05:31:24.314Z,10.33
2023-10-09T05:33:52.019Z,10.28
2023-10-09T05:36:20.133Z,10.23
2023-10-09T05:38:46.308Z,10.12
2023-10-09T05:41:12.500Z,10.08
2023-10-09T05:43:38.691Z,10.15
2023-10-09T05:46:04.930Z,10.24
2023-10-09T05:48:31.206Z,10.49
2023-10-09T05:50:57.420Z,10.41
2023-10-09T05:53:23.599Z,10.00
2023-10-09T05:55:49.775Z,10.08
2023-10-09T05:58:15.934Z,10.31
2023-10-09T06:00:42.124Z,10.39
2023-10-09T06:03:08.428Z,10.64
2023-10-09T06:05:34.645Z,10.99
2023-10-09T06:08:00.867Z,10.71
2023-10-09T06:10:27.044Z,10.50
2023-10-09T06:12:55.419Z,10.58
2023-10-09T06:15:23.268Z,10.97
2023-10-09T06:17:49.516Z,11.22
2023-10-09T06:20:15.740Z,11.15
2023-10-09T06:22:41.892Z,11.12
2023-10-09T06:25:08.059Z,11.15
2023-10-09T06:27:34.251Z,10.83
2023-10-09T06:30:00.519Z,10.90
2023-10-09T06:32:26.727Z,10.98
2023-10-09T06:34:52.972Z,10.97
2023-10-09T06:37:19.215Z,11.03
2023-10-09T06:39:45.375Z,11.05
2023-10-09T06:42:11.561Z,10.91
2023-10-09T06:44:37.771Z,10.99
2023-10-09T06:47:03.933Z,10.97
2023-10-09T06:49:30.077Z,10.95
2023-10-09T06:51:56.261Z,10.74
2023-10-09T06:54:22.440Z,10.50
2023-10-09T06:56:48.652Z,10.37
2023-10-09T06:59:14.801Z,10.24
2023-10-09T07:01:41.447Z,10.18
2023-10-09T07:04:07.789Z,10.14
2023-10-09T07:06:34.069Z,10.13
2023-10-09T07:09:00.279Z,10.40
2023-10-09T07:11:26.439Z,10.21
2023-10-09T07:13:52.605Z,10.50
2023-10-09T07:16:18.792Z,10.62
2023-10-09T07:18:45.039Z,10.55
2023-10-09T07:21:11.241Z,11.01
2023-10-09T07:23:37.424Z,11.30
2023-10-09T07:26:03.598Z,11.41
2023-10-09T07:28:29.754Z,11.75
2023-10-09T07:30:55.942Z,12.21
2023-10-09T07:33:22.180Z,12.37
2023-10-09T07:35:48.383Z,12.57
2023-10-09T07:38:14.554Z,12.62
2023-10-09T07:40:41.760Z,12.51
2023-10-09T07:43:08.028Z,12.66
2023-10-09T07:45:34.375Z,12.82
2023-10-09T07:48:00.658Z,13.13
2023-10-09T07:50:26.967Z,13.34
2023-10-09T07:52:53.136Z,13.57
2023-10-09T07:55:19.302Z,13.63
2023-10-09T07:57:45.494Z,13.77
2023-10-09T08:00:11.765Z,14.01
2023-10-09T08:02:38.002Z,14.12
2023-10-09T08:05:04.248Z,14.36
2023-10-09T08:08:02.289Z,14.26
2023-10-09T08:10:16.622Z,14.12
2023-10-09T08:12:43.058Z,14.46
2023-10-09T08:15:09.291Z,14.62
2023-10-09T08:17:35.506Z,14.85
2023-10-09T08:20:01.694Z,14.75
2023-10-09T08:22:27.856Z,14.69
2023-10-09T08:24:54.020Z,14.83
2023-10-09T08:27:20.230Z,14.98
2023-10-09T08:29:46.444Z,14.69
2023-10-09T08:33:25.672Z,15.05
2023-10-09T08:35:01.591Z,15.38
2023-10-09T08:37:28.126Z,15.30
2023-10-09T08:39:54.296Z,15.36
2023-10-09T08:42:20.479Z,15.73
2023-10-09T08:44:46.638Z,15.79
2023-10-09T08:47:12.803Z,16.05
2023-10-09T08:49:39.107Z,15.92
2023-10-09T08:52:05.264Z,16.01
2023-10-09T08:54:31.422Z,16.13
2023-10-09T08:56:57.608Z,16.18
2023-10-09T08:59:23.819Z,16.28
2023-10-09T09:01:50.028Z,16.55
2023-10-09T09:04:16.335Z,16.51
2023-10-09T09:06:42.666Z,16.58
2023-10-09T09:09:08.901Z,16.70
2023-10-09T09:11:35.063Z,16.67
2023-10-09T09:14:01.250Z,17.01
2023-10-09T09:16:27.423Z,17.06
2023-10-09T09:18:53.614Z,17.15
2023-10-09T09:21:19.776Z,17.30
2023-10-09T09:23:45.943Z,15.94
2023-10-09T09:26:12.113Z,15.96
2023-10-09T09:28:39.377Z,16.31
2023-10-09T09:31:05.645Z,16.58
2023-10-09T09:33:31.861Z,16.99
2023-10-09T09:35:58.032Z,17.25
2023-10-09T09:38:24.202Z,17.59
2023-10-09T09:40:50.397Z,17.61
2023-10-09T09:43:16.599Z,17.74
2023-10-09T09:45:42.763Z,17.81
2023-10-09T09:48:08.945Z,17.89
2023-10-09T09:50:35.123Z,18.02
2023-10-09T09:53:01.351Z,17.92
2023-10-09T09:55:27.664Z,18.13
2023-10-09T09:57:53.862Z,17.96
2023-10-09T10:00:20.042Z,18.16
2023-10-09T10:02:46.279Z,18.25
2023-10-09T10:05:12.561Z,18.06
2023-10-09T10:07:38.762Z,18.26
2023-10-09T10:10:04.969Z,18.41
2023-10-09T10:12:31.147Z,18.54
2023-10-09T10:14:57.320Z,18.58
2023-10-09T10:17:23.589Z,18.65
2023-10-09T10:19:49.890Z,18.88
2023-10-09T10:22:16.122Z,18.92
2023-10-09T10:24:42.309Z,18.82
2023-10-09T10:27:08.496Z,18.90
2023-10-09T10:29:34.660Z,18.97
2023-10-09T10:32:00.868Z,18.99
2023-10-09T10:34:27.074Z,18.89
2023-10-09T10:36:53.255Z,19.13
2023-10-09T10:39:19.433Z,19.33
2023-10-09T10:41:45.602Z,19.11
2023-10-09T10:44:11.817Z,19.36
2023-10-09T10:46:38.319Z,19.55
2023-10-09T10:49:04.953Z,19.72
2023-10-09T10:51:31.109Z,19.46
2023-10-09T10:53:57.402Z,19.35
2023-10-09T10:56:23.679Z,19.71
2023-10-09T10:58:49.849Z,19.73
2023-10-09T11:01:16.056Z,19.84
2023-10-09T11:03:42.420Z,19.99
2023-10-09T11:06:08.707Z,20.11
2023-10-09T11:08:34.894Z,20.21
2023-10-09T11:11:01.127Z,20.28
2023-10-09T11:13:27.375Z,20.30
2023-10-09T11:15:53.538Z,20.35
2023-10-09T11:18:19.788Z,20.52
2023-10-09T11:20:46.052Z,20.35
2023-10-09T11:23:12.307Z,20.42
2023-10-09T11:25:38.526Z,20.51
2023-10-09T11:28:04.726Z,20.54
2023-10-09T11:30:30.931Z,20.85
2023-10-09T11:32:57.181Z,20.83
2023-10-09T11:35:23.508Z,20.85
2023-10-09T11:37:49.704Z,20.91
2023-10-09T11:40:15.868Z,20.92
2023-10-09T11:42:42.038Z,20.97
2023-10-09T11:45:08.214Z,20.98
2023-10-09T11:47:34.467Z,20.98
2023-10-09T11:50:00.690Z,21.03
2023-10-09T11:52:26.887Z,21.04
2023-10-09T11:54:53.146Z,21.24
2023-10-09T11:57:19.335Z,21.42
2023-10-09T11:59:45.723Z,21.50
2023-10-09T12:02:12.000Z,21.42
2023-10-09T12:04:38.334Z,21.46
2023-10-09T12:07:04.594Z,21.62
2023-10-09T12:09:30.785Z,21.70
2023-10-09T12:12:03.440Z,21.09
2023-10-09T12:14:30.221Z,21.71
2023-10-09T12:16:56.463Z,21.60
2023-10-09T12:19:22.757Z,21.81
2023-10-09T12:21:48.915Z,21.58
2023-10-09T12:24:15.331Z,21.65
2023-10-09T12:26:41.737Z,21.62
2023-10-09T12:29:07.972Z,21.50
2023-10-09T12:31:34.213Z,21.59
2023-10-09T12:34:00.483Z,21.56
2023-10-09T12:36:26.685Z,21.47
2023-10-09T12:38:52.855Z,21.24
2023-10-09T12:41:19.049Z,21.75
2023-10-09T12:43:45.279Z,21.32
2023-10-09T12:46:11.540Z,20.83
2023-10-09T12:48:37.865Z,21.13
2023-10-09T12:51:04.043Z,21.05
2023-10-09T12:53:31.655Z,21.41
2023-10-09T12:55:58.874Z,21.33
2023-10-09T12:58:25.049Z,21.28
2023-10-09T13:00:51.214Z,21.23
2023-10-09T13:03:17.553Z,20.90
2023-10-09T13:05:43.899Z,21.16
2023-10-09T13:08:11.504Z,20.67
2023-10-09T13:10:37.889Z,20.80
2023-10-09T13:13:04.072Z,20.70
2023-10-09T13:15:30.240Z,20.78
2023-10-09T13:17:56.593Z,20.52
2023-10-09T13:20:22.822Z,21.48
2023-10-09T13:22:49.031Z,21.63
2023-10-09T13:25:24.144Z,21.49
2023-10-09T13:27:57.864Z,21.34
2023-10-09T13:30:24.053Z,21.50
2023-10-09T13:32:50.322Z,21.96
2023-10-09T13:35:16.767Z,21.79
2023-10-09T13:40:09.172Z,20.97
2023-10-09T13:42:35.326Z,20.51
2023-10-09T13:45:01.497Z,20.99
2023-10-09T13:47:27.679Z,21.07
2023-10-09T13:49:53.884Z,21.04
2023-10-09T13:52:20.105Z,20.97
2023-10-09T13:54:46.297Z,20.82
2023-10-09T13:57:12.470Z,21.31
2023-10-09T13:59:38.639Z,21.55
2023-10-09T14:02:04.935Z,21.50
2023-10-09T14:04:31.114Z,21.50
2023-10-09T14:06:57.280Z,21.29
2023-10-09T14:09:23.446Z,21.05
2023-10-09T14:11:49.609Z,20.90
2023-10-09T14:14:15.808Z,21.34
2023-10-09T14:16:42.019Z,21.64
2023-10-09T14:19:08.216Z,21.83
2023-10-09T14:21:34.394Z,21.40
2023-10-09T14:24:00.573Z,21.73
2023-10-09T14:26:26.737Z,21.80
2023-10-09T14:28:52.960Z,21.70
2023-10-09T14:31:19.144Z,21.80
2023-10-09T14:33:45.346Z,21.83
2023-10-09T14:36:11.498Z,21.75
2023-10-09T14:38:37.709Z,21.60
2023-10-09T14:41:03.976Z,21.77
2023-10-09T14:43:30.162Z,21.68
2023-10-09T14:45:56.359Z,21.69
2023-10-09T14:48:22.556Z,21.51
2023-10-09T14:50:48.718Z,21.48
2023-10-09T14:53:14.916Z,21.17
2023-10-09T14:55:41.134Z,21.29
2023-10-09T14:58:07.304Z,20.96
2023-10-09T15:00:33.482Z,20.89
2023-10-09T15:02:59.676Z,20.64
2023-10-09T15:05:25.838Z,20.50
2023-10-09T15:07:52.062Z,20.26
2023-10-09T15:10:18.245Z,19.85
2023-10-09T15:12:44.561Z,19.44
2023-10-09T15:15:10.758Z,19.47
2023-10-09T15:17:36.995Z,19.18
2023-10-09T15:20:03.296Z,18.87
2023-10-09T15:22:29.550Z,18.73
2023-10-09T15:24:55.765Z,18.37
2023-10-09T15:27:21.983Z,18.08
2023-10-09T15:29:48.155Z,17.97
2023-10-09T15:32:14.362Z,17.76
2023-10-09T15:34:40.560Z,17.53
2023-10-09T15:37:06.734Z,17.70
2023-10-09T15:39:32.897Z,17.71
2023-10-09T15:41:59.069Z,17.20
2023-10-09T15:44:27.330Z,17.02
2023-10-09T15:46:54.320Z,16.75
2023-10-09T15:49:20.509Z,16.84
2023-10-09T15:51:46.676Z,16.66
2023-10-09T15:54:13.265Z,16.72
2023-10-09T15:56:40.962Z,16.61
2023-10-09T15:59:07.850Z,16.68
2023-10-09T16:01:34.154Z,16.17
2023-10-09T16:04:00.550Z,16.25
2023-10-09T16:06:26.756Z,15.83
2023-10-09T16:08:52.931Z,15.67
2023-10-09T16:11:19.153Z,15.83
2023-10-09T16:13:45.380Z,15.71
2023-10-09T16:16:11.598Z,15.69
2023-10-09T16:18:37.814Z,15.47
2023-10-09T16:21:03.975Z,15.61
2023-10-09T16:23:30.135Z,15.76
2023-10-09T16:25:56.309Z,15.69
2023-10-09T16:28:22.639Z,15.40
2023-10-09T16:30:48.830Z,15.45
2023-10-09T16:33:15.076Z,15.50
2023-10-09T16:35:41.250Z,15.38
2023-10-09T16:38:07.467Z,15.12
2023-10-09T16:40:33.643Z,15.11
2023-10-09T16:42:59.820Z,15.22
2023-10-09T16:45:25.999Z,15.08
2023-10-09T16:47:52.366Z,15.06
2023-10-09T16:50:18.949Z,14.86
2023-10-09T16:52:45.223Z,14.86
2023-10-09T16:55:11.423Z,14.81
2023-10-09T16:57:37.707Z,14.71
2023-10-09T17:00:03.922Z,14.75
2023-10-09T17:02:30.195Z,14.77
2023-10-09T17:04:56.561Z,14.48
2023-10-09T17:07:22.768Z,14.35
2023-10-09T17:09:49.078Z,14.34
2023-10-09T17:12:15.351Z,14.30
2023-10-09T17:14:41.527Z,14.45
2023-10-09T17:17:07.750Z,14.15
2023-10-09T17:19:33.923Z,14.32
2023-10-09T17:22:00.145Z,13.98
2023-10-09T17:24:26.345Z,13.97
2023-10-09T17:26:52.549Z,13.78
2023-10-09T17:29:18.741Z,13.72
2023-10-09T17:31:45.116Z,13.86
2023-10-09T17:34:11.334Z,14.20
2023-10-09T17:36:37.521Z,14.09
2023-10-09T17:39:03.707Z,13.83
2023-10-09T17:41:29.897Z,13.65
2023-10-09T17:43:56.130Z,13.92
2023-10-09T17:46:22.328Z,13.85
2023-10-09T17:48:48.589Z,13.88
2023-10-09T17:51:14.919Z,13.57
2023-10-09T17:53:41.079Z,13.62
2023-10-09T17:56:07.281Z,13.41
2023-10-09T17:58:33.490Z,13.33
2023-10-09T18:00:59.755Z,13.52
2023-10-09T18:03:26.037Z,13.74
2023-10-09T18:05:52.372Z,13.64
2023-10-09T18:08:18.640Z,13.44
2023-10-09T18:10:44.937Z,13.47
2023-10-09T18:13:11.145Z,13.68
2023-10-09T18:15:37.301Z,13.41
2023-10-09T18:18:03.556Z,13.34
2023-10-09T18:20:30.766Z,13.30
2023-10-09T18:22:57.897Z,13.32
2023-10-09T18:25:24.125Z,13.35
2023-10-09T18:27:50.293Z,13.21
2023-10-09T18:30:16.476Z,13.18
2023-10-09T18:32:42.708Z,13.18
2023-10-09T18:35:08.915Z,13.18
2023-10-09T18:37:35.123Z,13.12
2023-10-09T18:40:01.300Z,12.87
2023-10-09T18:42:27.495Z,13.26
2023-10-09T18:44:53.643Z,13.24
2023-10-09T18:47:19.870Z,13.08
2023-10-09T18:49:46.115Z,13.20
2023-10-09T18:52:12.398Z,13.01
2023-10-09T18:54:38.587Z,12.92
2023-10-09T18:57:04.755Z,12.90
2023-10-09T18:59:30.965Z,13.09
2023-10-09T19:01:57.210Z,12.75
2023-10-09T19:04:23.432Z,12.55
2023-10-09T19:06:49.601Z,12.77
2023-10-09T19:09:15.847Z,12.93
2023-10-09T19:11:42.149Z,12.88
2023-10-09T19:14:08.360Z,12.78
2023-10-09T19:16:34.677Z,12.71
2023-10-09T19:19:00.880Z,12.94
2023-10-09T19:21:27.056Z,12.83
2023-10-09T19:23:53.219Z,12.86
2023-10-09T19:26:19.434Z,12.76
2023-10-09T19:28:45.694Z,12.66
2023-10-09T19:31:11.938Z,12.75
2023-10-09T19:33:38.134Z,12.69
2023-10-09T19:36:04.299Z,12.69
2023-10-09T19:38:30.475Z,12.54
2023-10-09T19:40:56.646Z,12.63
2023-10-09T19:43:22.811Z,12.84
2023-10-09T19:45:48.971Z,12.47
2023-10-09T19:48:15.196Z,12.30
2023-10-09T19:50:41.425Z,12.47
2023-10-09T19:53:07.573Z,12.57
2023-10-09T19:55:33.769Z,12.75
2023-10-09T19:57:59.954Z,12.37
2023-10-09T20:00:26.119Z,12.46
2023-10-09T20:02:52.335Z,12.46
2023-10-09T20:05:18.645Z,12.32
2023-10-09T20:07:44.891Z,12.28
2023-10-09T20:10:11.163Z,12.45
2023-10-09T20:12:37.358Z,12.27
2023-10-09T20:15:03.530Z,12.37
2023-10-09T20:17:29.778Z,12.34
2023-10-09T20:19:55.986Z,12.13
2023-10-09T20:22:22.168Z,12.18
2023-10-09T20:24:48.373Z,12.28
2023-10-09T20:27:14.554Z,12.22
2023-10-09T20:29:43.112Z,11.97
2023-10-09T20:32:09.627Z,11.85
2023-10-09T20:34:35.837Z,11.87
2023-10-09T20:37:01.991Z,12.26
2023-10-09T20:39:28.253Z,12.32
2023-10-09T20:41:54.403Z,12.53
2023-10-09T20:44:20.586Z,12.47
2023-10-09T20:46:46.826Z,12.20
2023-10-09T20:49:13.199Z,12.12
2023-10-09T20:51:54.464Z,12.01
2023-10-09T20:54:23.188Z,11.92
2023-10-09T20:56:49.356Z,11.98
2023-10-09T20:59:15.770Z,11.98
2023-10-09T21:01:42.187Z,12.06
2023-10-09T21:04:08.430Z,11.91
2023-10-09T21:06:34.663Z,12.09
2023-10-09T21:09:00.839Z,12.05
2023-10-09T21:11:27.049Z,11.97
2023-10-09T21:13:53.256Z,12.09
2023-10-09T21:16:19.489Z,12.05
2023-10-09T21:18:45.781Z,12.06
2023-10-09T21:21:12.007Z,11.95
2023-10-09T21:23:38.175Z,11.93
2023-10-09T21:26:04.388Z,11.89
2023-10-09T21:28:30.565Z,12.14
2023-10-09T21:30:56.731Z,12.07
2023-10-09T21:33:22.936Z,12.19
2023-10-09T21:35:49.132Z,12.05
2023-10-09T21:38:15.311Z,12.06
2023-10-09T21:40:41.459Z,12.11
2023-10-09T21:43:07.639Z,12.54
2023-10-09T21:45:33.811Z,12.71
2023-10-09T21:48:00.018Z,12.81
2023-10-09T21:50:26.386Z,12.73
2023-10-09T21:52:52.685Z,12.85
2023-10-09T21:55:18.850Z,12.81
2023-10-09T21:57:45.103Z,12.58
2023-10-09T22:00:11.318Z,12.69
2023-10-09T22:02:37.589Z,12.73
2023-10-09T22:05:06.058Z,12.77
2023-10-09T22:07:33.035Z,12.76
2023-10-09T22:09:59.506Z,12.81
2023-10-09T22:12:25.658Z,12.76
2023-10-09T22:14:51.840Z,12.84
2023-10-09T22:17:18.065Z,12.70
2023-10-09T22:19:44.262Z,12.63
2023-10-09T22:22:10.424Z,12.61
2023-10-09T22:24:36.591Z,12.65
2023-10-09T22:27:02.752Z,12.71
2023-10-09T22:29:29.145Z,12.69
2023-10-09T22:31:55.470Z,12.67
2023-10-09T22:34:21.788Z,12.53
2023-10-09T22:36:54.260Z,12.29
2023-10-09T22:39:20.654Z,12.61
2023-10-09T22:41:46.832Z,12.60
2023-10-09T22:44:12.984Z,12.78
2023-10-09T22:46:39.165Z,12.84
2023-10-09T22:49:05.349Z,12.52
2023-10-09T22:51:31.527Z,12.38
2023-10-09T22:53:57.704Z,12.40
2023-10-09T22:56:23.899Z,12.40
2023-10-09T22:58:50.099Z,12.44
2023-10-09T23:01:16.301Z,12.41
2023-10-09T23:03:42.548Z,12.49
2023-10-09T23:06:08.870Z,12.26
2023-10-09T23:08:35.039Z,12.26
2023-10-09T23:11:01.269Z,12.50
2023-10-09T23:13:27.515Z,12.50
2023-10-09T23:15:53.747Z,12.43
2023-10-09T23:18:20.025Z,12.43
2023-10-09T23:20:46.198Z,12.32
2023-10-09T23:23:12.389Z,12.35
2023-10-09T23:25:38.601Z,12.41
2023-10-09T23:28:04.784Z,12.34
2023-10-09T23:30:30.946Z,12.16
2023-10-09T23:32:57.150Z,12.21
2023-10-09T23:35:23.385Z,12.34
2023-10-09T23:37:49.565Z,11.96
2023-10-09T23:40:15.720Z,12.28
2023-10-09T23:42:41.888Z,12.54
2023-10-09T23:45:08.089Z,12.36
2023-10-09T23:47:34.362Z,12.24
2023-10-09T23:50:00.618Z,12.30
2023-10-09T23:52:26.789Z,12.32
2023-10-09T23:54:52.942Z,12.49
2023-10-09T23:57:19.311Z,12.37
2023-10-09T23:59:45.671Z,12.57
